sensor_id;sensor_type;location;lat;lon;timestamp;P1;durP1;ratioP1;P2;durP2;ratioP2
2320;SDS011;15376;48.540;9.268;2023-04-23T00:00:04;4.13;;;3.73;;
2320;SDS011;15376;48.540;9.268;2023-04-23T00:02:31;4.33;;;3.60;;
2320;SDS011;15376;48.540;9.268;2023-04-23T00:04:59;4.03;;;3.63;;
2320;SDS011;15376;48.540;9.268;2023-04-23T00:07:28;4.13;;;3.73;;
2320;SDS011;15376;48.540;9.268;2023-04-23T00:09:56;4.97;;;3.40;;
2320;SDS011;15376;48.540;9.268;2023-04-23T00:12:23;3.90;;;3.60;;
2320;SDS011;15376;48.540;9.268;2023-04-23T00:14:49;4.00;;;3.13;;
2320;SDS011;15376;48.540;9.268;2023-04-23T00:17:15;3.83;;;3.53;;
2320;SDS011;15376;48.540;9.268;2023-04-23T00:19:40;6.03;;;3.53;;
2320;SDS011;15376;48.540;9.268;2023-04-23T00:22:05;4.03;;;3.40;;
2320;SDS011;15376;48.540;9.268;2023-04-23T00:24:31;4.20;;;3.70;;
2320;SDS011;15376;48.540;9.268;2023-04-23T00:26:58;3.47;;;3.23;;
2320;SDS011;15376;48.540;9.268;2023-04-23T00:29:23;6.03;;;3.90;;
2320;SDS011;15376;48.540;9.268;2023-04-23T00:31:49;5.57;;;3.70;;
2320;SDS011;15376;48.540;9.268;2023-04-23T00:34:14;5.00;;;3.20;;
2320;SDS011;15376;48.540;9.268;2023-04-23T00:36:39;3.60;;;3.10;;
2320;SDS011;15376;48.540;9.268;2023-04-23T00:39:05;4.00;;;3.50;;
2320;SDS011;15376;48.540;9.268;2023-04-23T00:41:30;4.90;;;4.37;;
2320;SDS011;15376;48.540;9.268;2023-04-23T00:43:57;7.07;;;3.23;;
2320;SDS011;15376;48.540;9.268;2023-04-23T00:46:23;3.50;;;3.20;;
2320;SDS011;15376;48.540;9.268;2023-04-23T00:48:50;3.40;;;3.10;;
2320;SDS011;15376;48.540;9.268;2023-04-23T00:51:17;4.20;;;3.80;;
2320;SDS011;15376;48.540;9.268;2023-04-23T00:53:42;4.97;;;2.90;;
2320;SDS011;15376;48.540;9.268;2023-04-23T00:56:07;3.40;;;3.10;;
2320;SDS011;15376;48.540;9.268;2023-04-23T00:58:33;3.27;;;2.97;;
2320;SDS011;15376;48.540;9.268;2023-04-23T01:00:59;3.50;;;3.20;;
2320;SDS011;15376;48.540;9.268;2023-04-23T01:03:28;3.33;;;3.03;;
2320;SDS011;15376;48.540;9.268;2023-04-23T01:05:54;3.40;;;3.10;;
2320;SDS011;15376;48.540;9.268;2023-04-23T01:08:20;5.43;;;3.50;;
2320;SDS011;15376;48.540;9.268;2023-04-23T01:10:49;10.60;;;3.57;;
2320;SDS011;15376;48.540;9.268;2023-04-23T01:13:14;4.60;;;3.10;;
2320;SDS011;15376;48.540;9.268;2023-04-23T01:15:41;6.97;;;3.73;;
2320;SDS011;15376;48.540;9.268;2023-04-23T01:18:08;3.87;;;3.57;;
2320;SDS011;15376;48.540;9.268;2023-04-23T01:20:33;3.43;;;2.70;;
2320;SDS011;15376;48.540;9.268;2023-04-23T01:23:00;4.77;;;3.87;;
2320;SDS011;15376;48.540;9.268;2023-04-23T01:25:28;4.53;;;3.13;;
2320;SDS011;15376;48.540;9.268;2023-04-23T01:27:54;4.53;;;3.07;;
2320;SDS011;15376;48.540;9.268;2023-04-23T01:30:21;4.23;;;3.90;;
2320;SDS011;15376;48.540;9.268;2023-04-23T01:32:47;3.60;;;3.30;;
2320;SDS011;15376;48.540;9.268;2023-04-23T01:35:13;3.87;;;3.43;;
2320;SDS011;15376;48.540;9.268;2023-04-23T01:37:39;4.40;;;3.73;;
2320;SDS011;15376;48.540;9.268;2023-04-23T01:40:06;5.50;;;3.17;;
2320;SDS011;15376;48.540;9.268;2023-04-23T01:42:32;3.77;;;3.57;;
2320;SDS011;15376;48.540;9.268;2023-04-23T01:44:58;4.33;;;3.93;;
2320;SDS011;15376;48.540;9.268;2023-04-23T01:47:23;4.63;;;4.00;;
2320;SDS011;15376;48.540;9.268;2023-04-23T01:49:50;3.70;;;3.40;;
2320;SDS011;15376;48.540;9.268;2023-04-23T01:52:15;7.43;;;3.70;;
2320;SDS011;15376;48.540;9.268;2023-04-23T01:54:40;4.40;;;4.00;;
2320;SDS011;15376;48.540;9.268;2023-04-23T01:57:06;5.57;;;3.80;;
2320;SDS011;15376;48.540;9.268;2023-04-23T01:59:31;4.10;;;3.80;;
2320;SDS011;15376;48.540;9.268;2023-04-23T02:01:56;4.33;;;3.87;;
2320;SDS011;15376;48.540;9.268;2023-04-23T02:04:22;6.20;;;4.07;;
2320;SDS011;15376;48.540;9.268;2023-04-23T02:06:48;8.07;;;4.60;;
2320;SDS011;15376;48.540;9.268;2023-04-23T02:09:15;4.40;;;4.00;;
2320;SDS011;15376;48.540;9.268;2023-04-23T02:11:40;5.20;;;4.10;;
2320;SDS011;15376;48.540;9.268;2023-04-23T02:14:06;4.90;;;4.27;;
2320;SDS011;15376;48.540;9.268;2023-04-23T02:16:32;7.03;;;4.50;;
2320;SDS011;15376;48.540;9.268;2023-04-23T02:18:58;5.03;;;4.53;;
2320;SDS011;15376;48.540;9.268;2023-04-23T02:21:24;8.00;;;4.50;;
2320;SDS011;15376;48.540;9.268;2023-04-23T02:23:51;4.87;;;4.37;;
2320;SDS011;15376;48.540;9.268;2023-04-23T02:26:16;5.10;;;4.67;;
2320;SDS011;15376;48.540;9.268;2023-04-23T02:28:42;4.97;;;4.50;;
2320;SDS011;15376;48.540;9.268;2023-04-23T02:31:08;5.10;;;4.67;;
2320;SDS011;15376;48.540;9.268;2023-04-23T02:33:33;8.40;;;4.30;;
2320;SDS011;15376;48.540;9.268;2023-04-23T02:35:59;6.57;;;4.87;;
2320;SDS011;15376;48.540;9.268;2023-04-23T02:38:25;6.43;;;4.90;;
2320;SDS011;15376;48.540;9.268;2023-04-23T02:40:50;5.07;;;4.57;;
2320;SDS011;15376;48.540;9.268;2023-04-23T02:43:15;6.13;;;4.93;;
2320;SDS011;15376;48.540;9.268;2023-04-23T02:45:42;5.27;;;4.87;;
2320;SDS011;15376;48.540;9.268;2023-04-23T02:48:08;5.03;;;4.63;;
2320;SDS011;15376;48.540;9.268;2023-04-23T02:50:35;6.63;;;5.90;;
2320;SDS011;15376;48.540;9.268;2023-04-23T02:53:03;7.10;;;5.60;;
2320;SDS011;15376;48.540;9.268;2023-04-23T02:55:29;6.57;;;5.57;;
2320;SDS011;15376;48.540;9.268;2023-04-23T02:57:55;6.03;;;5.43;;
2320;SDS011;15376;48.540;9.268;2023-04-23T03:00:21;5.50;;;5.00;;
2320;SDS011;15376;48.540;9.268;2023-04-23T03:02:47;6.27;;;5.07;;
2320;SDS011;15376;48.540;9.268;2023-04-23T03:05:12;5.70;;;5.20;;
2320;SDS011;15376;48.540;9.268;2023-04-23T03:07:37;5.60;;;5.10;;
2320;SDS011;15376;48.540;9.268;2023-04-23T03:10:03;6.03;;;5.37;;
2320;SDS011;15376;48.540;9.268;2023-04-23T03:12:29;6.40;;;5.80;;
2320;SDS011;15376;48.540;9.268;2023-04-23T03:14:54;7.10;;;5.90;;
2320;SDS011;15376;48.540;9.268;2023-04-23T03:17:20;6.70;;;6.10;;
2320;SDS011;15376;48.540;9.268;2023-04-23T03:19:45;6.80;;;6.20;;
2320;SDS011;15376;48.540;9.268;2023-04-23T03:22:10;7.27;;;5.30;;
2320;SDS011;15376;48.540;9.268;2023-04-23T03:24:36;5.83;;;5.23;;
2320;SDS011;15376;48.540;9.268;2023-04-23T03:27:01;6.40;;;5.47;;
2320;SDS011;15376;48.540;9.268;2023-04-23T03:29:26;5.53;;;5.03;;
2320;SDS011;15376;48.540;9.268;2023-04-23T03:31:55;5.30;;;4.90;;
2320;SDS011;15376;48.540;9.268;2023-04-23T03:34:23;7.10;;;6.40;;
2320;SDS011;15376;48.540;9.268;2023-04-23T03:36:48;6.50;;;5.57;;
2320;SDS011;15376;48.540;9.268;2023-04-23T03:39:15;7.60;;;5.83;;
2320;SDS011;15376;48.540;9.268;2023-04-23T03:41:40;7.60;;;6.13;;
2320;SDS011;15376;48.540;9.268;2023-04-23T03:44:05;5.80;;;5.30;;
2320;SDS011;15376;48.540;9.268;2023-04-23T03:46:31;6.70;;;6.00;;
2320;SDS011;15376;48.540;9.268;2023-04-23T03:48:56;6.70;;;6.10;;
2320;SDS011;15376;48.540;9.268;2023-04-23T03:51:21;6.93;;;6.23;;
2320;SDS011;15376;48.540;9.268;2023-04-23T03:53:47;6.90;;;6.20;;
2320;SDS011;15376;48.540;9.268;2023-04-23T03:56:13;8.57;;;6.80;;
2320;SDS011;15376;48.540;9.268;2023-04-23T03:58:38;6.27;;;5.77;;
2320;SDS011;15376;48.540;9.268;2023-04-23T04:01:03;6.07;;;5.47;;
2320;SDS011;15376;48.540;9.268;2023-04-23T04:03:29;6.67;;;5.90;;
2320;SDS011;15376;48.540;9.268;2023-04-23T04:05:54;6.40;;;5.77;;
2320;SDS011;15376;48.540;9.268;2023-04-23T04:08:19;7.77;;;5.63;;
2320;SDS011;15376;48.540;9.268;2023-04-23T04:10:46;5.50;;;5.00;;
2320;SDS011;15376;48.540;9.268;2023-04-23T04:13:11;5.00;;;4.60;;
2320;SDS011;15376;48.540;9.268;2023-04-23T04:15:37;5.50;;;5.00;;
2320;SDS011;15376;48.540;9.268;2023-04-23T04:18:02;5.00;;;4.50;;
2320;SDS011;15376;48.540;9.268;2023-04-23T04:20:28;4.80;;;4.40;;
2320;SDS011;15376;48.540;9.268;2023-04-23T04:22:53;5.03;;;4.63;;
2320;SDS011;15376;48.540;9.268;2023-04-23T04:25:19;5.27;;;4.77;;
2320;SDS011;15376;48.540;9.268;2023-04-23T04:27:48;4.70;;;4.30;;
2320;SDS011;15376;48.540;9.268;2023-04-23T04:30:14;8.90;;;5.20;;
2320;SDS011;15376;48.540;9.268;2023-04-23T04:32:39;6.63;;;6.00;;
2320;SDS011;15376;48.540;9.268;2023-04-23T04:35:06;5.50;;;5.10;;
2320;SDS011;15376;48.540;9.268;2023-04-23T04:37:36;5.20;;;4.70;;
2320;SDS011;15376;48.540;9.268;2023-04-23T04:40:02;5.03;;;4.60;;
2320;SDS011;15376;48.540;9.268;2023-04-23T04:42:28;5.53;;;5.03;;
2320;SDS011;15376;48.540;9.268;2023-04-23T04:44:56;5.03;;;4.63;;
2320;SDS011;15376;48.540;9.268;2023-04-23T04:47:23;4.80;;;4.40;;
2320;SDS011;15376;48.540;9.268;2023-04-23T04:49:49;6.40;;;4.67;;
2320;SDS011;15376;48.540;9.268;2023-04-23T04:52:15;4.40;;;4.10;;
2320;SDS011;15376;48.540;9.268;2023-04-23T04:54:40;4.63;;;4.20;;
2320;SDS011;15376;48.540;9.268;2023-04-23T04:57:06;4.60;;;4.13;;
2320;SDS011;15376;48.540;9.268;2023-04-23T04:59:31;4.53;;;4.23;;
2320;SDS011;15376;48.540;9.268;2023-04-23T05:01:56;5.80;;;4.73;;
2320;SDS011;15376;48.540;9.268;2023-04-23T05:04:22;5.43;;;4.93;;
2320;SDS011;15376;48.540;9.268;2023-04-23T05:06:47;6.53;;;4.63;;
2320;SDS011;15376;48.540;9.268;2023-04-23T05:09:12;6.03;;;4.77;;
2320;SDS011;15376;48.540;9.268;2023-04-23T05:11:38;5.10;;;4.53;;
2320;SDS011;15376;48.540;9.268;2023-04-23T05:14:05;5.50;;;5.00;;
2320;SDS011;15376;48.540;9.268;2023-04-23T05:16:30;6.43;;;5.10;;
2320;SDS011;15376;48.540;9.268;2023-04-23T05:18:55;5.03;;;4.10;;
2320;SDS011;15376;48.540;9.268;2023-04-23T05:21:21;5.37;;;4.57;;
2320;SDS011;15376;48.540;9.268;2023-04-23T05:23:46;6.33;;;4.90;;
2320;SDS011;15376;48.540;9.268;2023-04-23T05:26:12;5.33;;;4.83;;
2320;SDS011;15376;48.540;9.268;2023-04-23T05:28:37;4.73;;;4.33;;
2320;SDS011;15376;48.540;9.268;2023-04-23T05:31:03;5.70;;;4.70;;
2320;SDS011;15376;48.540;9.268;2023-04-23T05:33:28;4.30;;;3.73;;
2320;SDS011;15376;48.540;9.268;2023-04-23T05:35:54;4.80;;;4.30;;
2320;SDS011;15376;48.540;9.268;2023-04-23T05:38:19;4.60;;;4.20;;
2320;SDS011;15376;48.540;9.268;2023-04-23T05:40:47;8.20;;;4.60;;
2320;SDS011;15376;48.540;9.268;2023-04-23T05:43:13;5.27;;;4.40;;
2320;SDS011;15376;48.540;9.268;2023-04-23T05:45:38;5.97;;;3.53;;
2320;SDS011;15376;48.540;9.268;2023-04-23T05:48:03;4.63;;;4.10;;
2320;SDS011;15376;48.540;9.268;2023-04-23T05:50:29;4.10;;;3.73;;
2320;SDS011;15376;48.540;9.268;2023-04-23T05:52:54;3.90;;;3.40;;
2320;SDS011;15376;48.540;9.268;2023-04-23T05:55:20;3.80;;;3.40;;
2320;SDS011;15376;48.540;9.268;2023-04-23T05:57:45;4.37;;;2.90;;
2320;SDS011;15376;48.540;9.268;2023-04-23T06:00:11;3.13;;;2.60;;
2320;SDS011;15376;48.540;9.268;2023-04-23T06:02:37;4.00;;;3.00;;
2320;SDS011;15376;48.540;9.268;2023-04-23T06:05:03;3.37;;;2.80;;
2320;SDS011;15376;48.540;9.268;2023-04-23T06:07:30;3.10;;;2.80;;
2320;SDS011;15376;48.540;9.268;2023-04-23T06:09:55;6.23;;;3.70;;
2320;SDS011;15376;48.540;9.268;2023-04-23T06:12:21;4.03;;;2.80;;
2320;SDS011;15376;48.540;9.268;2023-04-23T06:14:46;3.20;;;2.60;;
2320;SDS011;15376;48.540;9.268;2023-04-23T06:17:11;5.83;;;2.70;;
2320;SDS011;15376;48.540;9.268;2023-04-23T06:19:42;3.23;;;2.93;;
2320;SDS011;15376;48.540;9.268;2023-04-23T06:22:07;3.93;;;2.50;;
2320;SDS011;15376;48.540;9.268;2023-04-23T06:24:35;2.00;;;1.70;;
2320;SDS011;15376;48.540;9.268;2023-04-23T06:27:01;2.00;;;1.90;;
2320;SDS011;15376;48.540;9.268;2023-04-23T06:29:26;2.33;;;1.60;;
2320;SDS011;15376;48.540;9.268;2023-04-23T06:31:55;1.83;;;1.57;;
2320;SDS011;15376;48.540;9.268;2023-04-23T06:34:21;1.83;;;1.70;;
2320;SDS011;15376;48.540;9.268;2023-04-23T06:36:47;1.57;;;1.47;;
2320;SDS011;15376;48.540;9.268;2023-04-23T06:39:12;3.23;;;2.10;;
2320;SDS011;15376;48.540;9.268;2023-04-23T06:41:37;1.50;;;1.20;;
2320;SDS011;15376;48.540;9.268;2023-04-23T06:44:03;1.70;;;1.27;;
2320;SDS011;15376;48.540;9.268;2023-04-23T06:46:28;1.40;;;1.20;;
2320;SDS011;15376;48.540;9.268;2023-04-23T06:48:53;1.20;;;1.10;;
2320;SDS011;15376;48.540;9.268;2023-04-23T06:51:19;1.67;;;1.30;;
2320;SDS011;15376;48.540;9.268;2023-04-23T06:53:45;1.10;;;0.90;;
2320;SDS011;15376;48.540;9.268;2023-04-23T06:56:11;1.30;;;1.20;;
2320;SDS011;15376;48.540;9.268;2023-04-23T06:58:36;1.20;;;1.10;;
2320;SDS011;15376;48.540;9.268;2023-04-23T07:01:03;1.23;;;1.00;;
2320;SDS011;15376;48.540;9.268;2023-04-23T07:03:29;1.30;;;1.20;;
2320;SDS011;15376;48.540;9.268;2023-04-23T07:05:57;1.67;;;1.23;;
2320;SDS011;15376;48.540;9.268;2023-04-23T07:08:23;1.20;;;1.10;;
2320;SDS011;15376;48.540;9.268;2023-04-23T07:10:49;3.70;;;1.27;;
2320;SDS011;15376;48.540;9.268;2023-04-23T07:13:14;1.20;;;1.10;;
2320;SDS011;15376;48.540;9.268;2023-04-23T07:15:40;1.50;;;1.23;;
2320;SDS011;15376;48.540;9.268;2023-04-23T07:18:07;1.27;;;1.17;;
2320;SDS011;15376;48.540;9.268;2023-04-23T07:20:32;2.43;;;1.20;;
2320;SDS011;15376;48.540;9.268;2023-04-23T07:22:58;3.10;;;1.20;;
2320;SDS011;15376;48.540;9.268;2023-04-23T07:25:24;1.40;;;1.23;;
2320;SDS011;15376;48.540;9.268;2023-04-23T07:27:50;1.57;;;1.43;;
2320;SDS011;15376;48.540;9.268;2023-04-23T07:30:18;1.80;;;1.10;;
2320;SDS011;15376;48.540;9.268;2023-04-23T07:32:43;1.20;;;1.10;;
2320;SDS011;15376;48.540;9.268;2023-04-23T07:35:08;1.13;;;1.03;;
2320;SDS011;15376;48.540;9.268;2023-04-23T07:37:35;1.30;;;1.20;;
2320;SDS011;15376;48.540;9.268;2023-04-23T07:40:01;1.73;;;1.10;;
2320;SDS011;15376;48.540;9.268;2023-04-23T07:42:27;1.10;;;1.00;;
2320;SDS011;15376;48.540;9.268;2023-04-23T07:44:52;2.87;;;1.27;;
2320;SDS011;15376;48.540;9.268;2023-04-23T07:47:18;1.70;;;1.23;;
2320;SDS011;15376;48.540;9.268;2023-04-23T07:49:43;1.90;;;1.37;;
2320;SDS011;15376;48.540;9.268;2023-04-23T07:52:09;1.30;;;1.20;;
2320;SDS011;15376;48.540;9.268;2023-04-23T07:54:34;1.43;;;1.10;;
2320;SDS011;15376;48.540;9.268;2023-04-23T07:56:59;1.43;;;1.33;;
2320;SDS011;15376;48.540;9.268;2023-04-23T07:59:25;1.13;;;1.03;;
2320;SDS011;15376;48.540;9.268;2023-04-23T08:01:50;2.07;;;1.20;;
2320;SDS011;15376;48.540;9.268;2023-04-23T08:04:22;1.20;;;1.10;;
2320;SDS011;15376;48.540;9.268;2023-04-23T08:06:47;1.20;;;1.10;;
2320;SDS011;15376;48.540;9.268;2023-04-23T08:09:18;1.20;;;1.10;;
2320;SDS011;15376;48.540;9.268;2023-04-23T08:11:43;1.20;;;1.10;;
2320;SDS011;15376;48.540;9.268;2023-04-23T08:14:09;1.83;;;1.20;;
2320;SDS011;15376;48.540;9.268;2023-04-23T08:16:34;1.33;;;1.10;;
2320;SDS011;15376;48.540;9.268;2023-04-23T08:18:59;1.20;;;1.10;;
2320;SDS011;15376;48.540;9.268;2023-04-23T08:21:25;1.40;;;1.30;;
2320;SDS011;15376;48.540;9.268;2023-04-23T08:23:51;2.37;;;1.83;;
2320;SDS011;15376;48.540;9.268;2023-04-23T08:26:17;2.33;;;1.27;;
2320;SDS011;15376;48.540;9.268;2023-04-23T08:28:42;1.23;;;1.13;;
2320;SDS011;15376;48.540;9.268;2023-04-23T08:31:08;2.27;;;1.57;;
2320;SDS011;15376;48.540;9.268;2023-04-23T08:33:33;1.50;;;1.30;;
2320;SDS011;15376;48.540;9.268;2023-04-23T08:35:58;3.20;;;1.20;;
2320;SDS011;15376;48.540;9.268;2023-04-23T08:38:24;1.70;;;1.10;;
2320;SDS011;15376;48.540;9.268;2023-04-23T08:40:50;1.30;;;1.20;;
2320;SDS011;15376;48.540;9.268;2023-04-23T08:43:20;1.30;;;1.20;;
2320;SDS011;15376;48.540;9.268;2023-04-23T08:45:55;1.50;;;1.40;;
2320;SDS011;15376;48.540;9.268;2023-04-23T08:48:26;1.53;;;1.43;;
2320;SDS011;15376;48.540;9.268;2023-04-23T08:50:53;1.30;;;1.20;;
2320;SDS011;15376;48.540;9.268;2023-04-23T08:53:20;1.60;;;1.10;;
2320;SDS011;15376;48.540;9.268;2023-04-23T08:55:53;2.00;;;1.60;;
2320;SDS011;15376;48.540;9.268;2023-04-23T08:58:20;1.50;;;1.30;;
2320;SDS011;15376;48.540;9.268;2023-04-23T09:00:48;1.20;;;1.10;;
2320;SDS011;15376;48.540;9.268;2023-04-23T09:03:23;1.33;;;1.23;;
2320;SDS011;15376;48.540;9.268;2023-04-23T09:05:49;1.60;;;1.17;;
2320;SDS011;15376;48.540;9.268;2023-04-23T09:08:18;1.87;;;1.40;;
2320;SDS011;15376;48.540;9.268;2023-04-23T09:10:47;2.60;;;1.30;;
2320;SDS011;15376;48.540;9.268;2023-04-23T09:13:14;1.53;;;1.30;;
2320;SDS011;15376;48.540;9.268;2023-04-23T09:15:40;1.83;;;1.33;;
2320;SDS011;15376;48.540;9.268;2023-04-23T09:18:14;1.40;;;1.30;;
2320;SDS011;15376;48.540;9.268;2023-04-23T09:20:40;3.17;;;1.53;;
2320;SDS011;15376;48.540;9.268;2023-04-23T09:23:08;1.43;;;1.33;;
2320;SDS011;15376;48.540;9.268;2023-04-23T09:25:37;1.40;;;1.23;;
2320;SDS011;15376;48.540;9.268;2023-04-23T09:28:03;1.33;;;1.23;;
2320;SDS011;15376;48.540;9.268;2023-04-23T09:30:31;3.33;;;1.20;;
2320;SDS011;15376;48.540;9.268;2023-04-23T09:33:03;1.30;;;1.10;;
2320;SDS011;15376;48.540;9.268;2023-04-23T09:35:29;1.40;;;1.30;;
2320;SDS011;15376;48.540;9.268;2023-04-23T09:37:56;1.40;;;1.30;;
2320;SDS011;15376;48.540;9.268;2023-04-23T09:40:23;1.30;;;1.20;;
2320;SDS011;15376;48.540;9.268;2023-04-23T09:42:51;7.70;;;1.30;;
2320;SDS011;15376;48.540;9.268;2023-04-23T09:45:18;1.40;;;1.30;;
2320;SDS011;15376;48.540;9.268;2023-04-23T09:47:48;1.40;;;1.30;;
2320;SDS011;15376;48.540;9.268;2023-04-23T09:50:15;1.50;;;1.10;;
2320;SDS011;15376;48.540;9.268;2023-04-23T09:52:41;1.50;;;1.40;;
2320;SDS011;15376;48.540;9.268;2023-04-23T09:55:06;2.60;;;1.33;;
2320;SDS011;15376;48.540;9.268;2023-04-23T09:57:35;1.60;;;1.30;;
2320;SDS011;15376;48.540;9.268;2023-04-23T10:00:11;1.80;;;1.60;;
2320;SDS011;15376;48.540;9.268;2023-04-23T10:02:37;1.60;;;1.50;;
2320;SDS011;15376;48.540;9.268;2023-04-23T10:05:13;1.40;;;1.30;;
2320;SDS011;15376;48.540;9.268;2023-04-23T10:07:39;1.70;;;1.60;;
2320;SDS011;15376;48.540;9.268;2023-04-23T10:10:05;3.17;;;1.40;;
2320;SDS011;15376;48.540;9.268;2023-04-23T10:12:31;1.30;;;1.20;;
2320;SDS011;15376;48.540;9.268;2023-04-23T10:14:56;1.53;;;1.23;;
2320;SDS011;15376;48.540;9.268;2023-04-23T10:17:23;4.50;;;1.60;;
2320;SDS011;15376;48.540;9.268;2023-04-23T10:19:49;1.47;;;1.37;;
2320;SDS011;15376;48.540;9.268;2023-04-23T10:22:15;1.50;;;1.40;;
2320;SDS011;15376;48.540;9.268;2023-04-23T10:24:45;1.40;;;1.30;;
2320;SDS011;15376;48.540;9.268;2023-04-23T10:27:17;1.60;;;1.37;;
2320;SDS011;15376;48.540;9.268;2023-04-23T10:29:45;1.30;;;1.20;;
2320;SDS011;15376;48.540;9.268;2023-04-23T10:32:12;1.63;;;1.40;;
2320;SDS011;15376;48.540;9.268;2023-04-23T10:34:39;1.60;;;1.27;;
2320;SDS011;15376;48.540;9.268;2023-04-23T10:37:06;1.70;;;1.30;;
2320;SDS011;15376;48.540;9.268;2023-04-23T10:39:33;1.50;;;1.33;;
2320;SDS011;15376;48.540;9.268;2023-04-23T10:41:59;2.77;;;1.40;;
2320;SDS011;15376;48.540;9.268;2023-04-23T10:44:32;2.13;;;1.50;;
2320;SDS011;15376;48.540;9.268;2023-04-23T10:47:01;1.60;;;1.30;;
2320;SDS011;15376;48.540;9.268;2023-04-23T10:49:32;1.70;;;1.40;;
2320;SDS011;15376;48.540;9.268;2023-04-23T10:52:02;2.60;;;1.43;;
2320;SDS011;15376;48.540;9.268;2023-04-23T10:54:39;1.57;;;1.47;;
2320;SDS011;15376;48.540;9.268;2023-04-23T10:57:05;1.63;;;1.50;;
2320;SDS011;15376;48.540;9.268;2023-04-23T10:59:32;7.80;;;1.60;;
2320;SDS011;15376;48.540;9.268;2023-04-23T11:02:09;2.13;;;1.40;;
2320;SDS011;15376;48.540;9.268;2023-04-23T11:04:40;1.50;;;1.40;;
2320;SDS011;15376;48.540;9.268;2023-04-23T11:07:09;1.60;;;1.50;;
2320;SDS011;15376;48.540;9.268;2023-04-23T11:09:42;1.67;;;1.57;;
2320;SDS011;15376;48.540;9.268;2023-04-23T11:12:11;1.70;;;1.60;;
2320;SDS011;15376;48.540;9.268;2023-04-23T11:14:55;1.60;;;1.27;;
2320;SDS011;15376;48.540;9.268;2023-04-23T11:17:21;1.47;;;1.37;;
2320;SDS011;15376;48.540;9.268;2023-04-23T11:20:22;2.10;;;1.73;;
2320;SDS011;15376;48.540;9.268;2023-04-23T11:22:49;1.60;;;1.50;;
2320;SDS011;15376;48.540;9.268;2023-04-23T11:25:22;2.97;;;1.33;;
2320;SDS011;15376;48.540;9.268;2023-04-23T11:27:49;1.87;;;1.60;;
2320;SDS011;15376;48.540;9.268;2023-04-23T11:30:26;1.60;;;1.43;;
2320;SDS011;15376;48.540;9.268;2023-04-23T11:32:54;1.97;;;1.77;;
2320;SDS011;15376;48.540;9.268;2023-04-23T11:35:21;2.60;;;1.60;;
2320;SDS011;15376;48.540;9.268;2023-04-23T11:37:57;2.30;;;1.70;;
2320;SDS011;15376;48.540;9.268;2023-04-23T11:40:22;1.73;;;1.63;;
2320;SDS011;15376;48.540;9.268;2023-04-23T11:42:52;1.57;;;1.47;;
2320;SDS011;15376;48.540;9.268;2023-04-23T11:45:22;5.23;;;1.77;;
2320;SDS011;15376;48.540;9.268;2023-04-23T11:47:50;1.70;;;1.50;;
2320;SDS011;15376;48.540;9.268;2023-04-23T11:50:23;1.30;;;1.20;;
2320;SDS011;15376;48.540;9.268;2023-04-23T11:52:53;1.30;;;1.20;;
2320;SDS011;15376;48.540;9.268;2023-04-23T11:55:19;1.50;;;1.40;;
2320;SDS011;15376;48.540;9.268;2023-04-23T11:57:46;2.13;;;1.87;;
2320;SDS011;15376;48.540;9.268;2023-04-23T12:02:49;1.30;;;1.20;;
2320;SDS011;15376;48.540;9.268;2023-04-23T12:05:28;1.70;;;1.60;;
2320;SDS011;15376;48.540;9.268;2023-04-23T12:08:04;1.60;;;1.50;;
2320;SDS011;15376;48.540;9.268;2023-04-23T12:10:32;2.07;;;1.33;;
2320;SDS011;15376;48.540;9.268;2023-04-23T12:12:58;1.57;;;1.43;;
2320;SDS011;15376;48.540;9.268;2023-04-23T12:15:23;1.83;;;1.60;;
2320;SDS011;15376;48.540;9.268;2023-04-23T12:17:49;2.10;;;1.30;;
2320;SDS011;15376;48.540;9.268;2023-04-23T12:20:16;1.50;;;1.40;;
2320;SDS011;15376;48.540;9.268;2023-04-23T12:22:43;1.80;;;1.70;;
2320;SDS011;15376;48.540;9.268;2023-04-23T12:25:08;1.43;;;1.33;;
2320;SDS011;15376;48.540;9.268;2023-04-23T12:27:37;1.67;;;1.33;;
2320;SDS011;15376;48.540;9.268;2023-04-23T12:30:05;2.00;;;1.80;;
2320;SDS011;15376;48.540;9.268;2023-04-23T12:32:34;1.60;;;1.50;;
2320;SDS011;15376;48.540;9.268;2023-04-23T12:35:01;1.50;;;1.40;;
2320;SDS011;15376;48.540;9.268;2023-04-23T12:37:30;2.37;;;1.23;;
2320;SDS011;15376;48.540;9.268;2023-04-23T12:39:59;1.80;;;1.60;;
2320;SDS011;15376;48.540;9.268;2023-04-23T12:42:25;2.03;;;1.30;;
2320;SDS011;15376;48.540;9.268;2023-04-23T12:44:50;1.60;;;1.50;;
2320;SDS011;15376;48.540;9.268;2023-04-23T12:47:16;1.53;;;1.40;;
2320;SDS011;15376;48.540;9.268;2023-04-23T12:49:43;1.97;;;1.33;;
2320;SDS011;15376;48.540;9.268;2023-04-23T12:52:09;1.63;;;1.40;;
2320;SDS011;15376;48.540;9.268;2023-04-23T12:54:36;2.70;;;2.17;;
2320;SDS011;15376;48.540;9.268;2023-04-23T12:57:02;1.50;;;1.20;;
2320;SDS011;15376;48.540;9.268;2023-04-23T12:59:32;1.73;;;1.43;;
2320;SDS011;15376;48.540;9.268;2023-04-23T13:01:57;9.30;;;1.30;;
2320;SDS011;15376;48.540;9.268;2023-04-23T13:04:26;1.50;;;1.40;;
2320;SDS011;15376;48.540;9.268;2023-04-23T13:06:54;1.67;;;1.57;;
2320;SDS011;15376;48.540;9.268;2023-04-23T13:09:21;1.67;;;1.57;;
2320;SDS011;15376;48.540;9.268;2023-04-23T13:11:48;2.10;;;1.43;;
2320;SDS011;15376;48.540;9.268;2023-04-23T13:14:14;2.27;;;1.60;;
2320;SDS011;15376;48.540;9.268;2023-04-23T13:16:41;1.83;;;1.30;;
2320;SDS011;15376;48.540;9.268;2023-04-23T13:19:06;1.40;;;1.30;;
2320;SDS011;15376;48.540;9.268;2023-04-23T13:21:32;2.13;;;1.60;;
2320;SDS011;15376;48.540;9.268;2023-04-23T13:23:57;1.70;;;1.40;;
2320;SDS011;15376;48.540;9.268;2023-04-23T13:26:23;2.23;;;1.73;;
2320;SDS011;15376;48.540;9.268;2023-04-23T13:28:48;2.00;;;1.37;;
2320;SDS011;15376;48.540;9.268;2023-04-23T13:31:14;1.50;;;1.40;;
2320;SDS011;15376;48.540;9.268;2023-04-23T13:33:39;2.40;;;1.57;;
2320;SDS011;15376;48.540;9.268;2023-04-23T13:36:05;1.40;;;1.30;;
2320;SDS011;15376;48.540;9.268;2023-04-23T13:38:31;2.07;;;1.70;;
2320;SDS011;15376;48.540;9.268;2023-04-23T13:40:56;1.67;;;1.20;;
2320;SDS011;15376;48.540;9.268;2023-04-23T13:43:22;1.53;;;1.43;;
2320;SDS011;15376;48.540;9.268;2023-04-23T13:45:47;2.80;;;2.50;;
2320;SDS011;15376;48.540;9.268;2023-04-23T13:48:16;2.67;;;1.70;;
2320;SDS011;15376;48.540;9.268;2023-04-23T13:50:41;2.67;;;1.90;;
2320;SDS011;15376;48.540;9.268;2023-04-23T13:53:08;2.40;;;1.60;;
2320;SDS011;15376;48.540;9.268;2023-04-23T13:55:40;2.73;;;1.77;;
2320;SDS011;15376;48.540;9.268;2023-04-23T13:58:05;2.77;;;1.47;;
2320;SDS011;15376;48.540;9.268;2023-04-23T14:00:31;1.57;;;1.47;;
2320;SDS011;15376;48.540;9.268;2023-04-23T14:02:57;1.90;;;1.80;;
2320;SDS011;15376;48.540;9.268;2023-04-23T14:05:22;3.37;;;2.37;;
2320;SDS011;15376;48.540;9.268;2023-04-23T14:07:48;1.70;;;1.53;;
2320;SDS011;15376;48.540;9.268;2023-04-23T14:10:14;1.67;;;1.57;;
2320;SDS011;15376;48.540;9.268;2023-04-23T14:12:40;1.47;;;1.37;;
2320;SDS011;15376;48.540;9.268;2023-04-23T14:15:06;3.60;;;1.50;;
2320;SDS011;15376;48.540;9.268;2023-04-23T14:17:32;2.20;;;2.00;;
2320;SDS011;15376;48.540;9.268;2023-04-23T14:19:58;3.00;;;1.60;;
2320;SDS011;15376;48.540;9.268;2023-04-23T14:22:29;3.00;;;1.50;;
2320;SDS011;15376;48.540;9.268;2023-04-23T14:25:02;2.10;;;1.80;;
2320;SDS011;15376;48.540;9.268;2023-04-23T14:27:33;3.23;;;1.80;;
2320;SDS011;15376;48.540;9.268;2023-04-23T14:30:03;2.20;;;1.63;;
2320;SDS011;15376;48.540;9.268;2023-04-23T14:32:29;2.00;;;1.60;;
2320;SDS011;15376;48.540;9.268;2023-04-23T14:34:55;2.17;;;1.70;;
2320;SDS011;15376;48.540;9.268;2023-04-23T14:37:20;2.40;;;2.00;;
2320;SDS011;15376;48.540;9.268;2023-04-23T14:39:45;1.50;;;1.40;;
2320;SDS011;15376;48.540;9.268;2023-04-23T14:42:11;1.87;;;1.50;;
2320;SDS011;15376;48.540;9.268;2023-04-23T14:44:36;2.07;;;1.60;;
2320;SDS011;15376;48.540;9.268;2023-04-23T14:47:02;1.70;;;1.60;;
2320;SDS011;15376;48.540;9.268;2023-04-23T14:49:27;2.33;;;1.90;;
2320;SDS011;15376;48.540;9.268;2023-04-23T14:51:53;2.27;;;1.37;;
2320;SDS011;15376;48.540;9.268;2023-04-23T14:54:19;2.17;;;1.97;;
2320;SDS011;15376;48.540;9.268;2023-04-23T14:56:45;2.07;;;1.87;;
2320;SDS011;15376;48.540;9.268;2023-04-23T14:59:10;2.70;;;2.00;;